Time;durP1;ratioP1;P1;durP2;ratioP2;P2;SDS_P1;SDS_P2;PMS_P1;PMS_P2;Temp;Humidity;BMP_temperature;BMP_pressure;BME280_temperature;BME280_humidity;BME280_pressure;Samples;Min_cycle;Max_cycle;Signal;HPM_P1;HPM_P2
2023/05/16 00:00:08;;;;;;;24.40;6.70;;;;;;;10.33;100.00;101751.00;4969709;28;20031;-74
2023/05/16 00:02:38;;;;;;;28.05;6.47;;;;;;;10.47;100.00;101746.84;4968763;28;20039;-75
2023/05/16 00:05:15;;;;;;;24.92;5.88;;;;;;;10.33;100.00;101756.34;4962226;28;20187;-76
2023/05/16 00:07:46;;;;;;;15.85;4.57;;;;;;;10.22;100.00;101765.75;4968161;28;20043;-75
2023/05/16 00:10:12;;;;;;;28.90;6.07;;;;;;;10.30;100.00;101755.66;4968344;28;20035;-74
2023/05/16 00:12:39;;;;;;;23.58;5.10;;;;;;;10.19;100.00;101755.22;4967396;28;20078;-76
2023/05/16 00:15:14;;;;;;;20.52;4.97;;;;;;;9.97;100.00;101763.38;4962745;28;20039;-73
2023/05/16 00:17:40;;;;;;;17.95;5.20;;;;;;;9.83;100.00;101764.84;4953895;28;20050;-76
2023/05/16 00:20:07;;;;;;;22.70;5.43;;;;;;;9.81;100.00;101758.75;4969019;28;20105;-76
2023/05/16 00:22:33;;;;;;;29.88;5.15;;;;;;;9.80;100.00;101758.81;4970253;28;20038;-75
2023/05/16 00:24:58;;;;;;;22.27;4.88;;;;;;;9.92;100.00;101763.59;4968803;28;20142;-75
2023/05/16 00:27:24;;;;;;;27.95;4.70;;;;;;;9.89;100.00;101763.75;4968150;28;20038;-75
2023/05/16 00:29:50;;;;;;;28.55;5.00;;;;;;;9.77;100.00;101758.94;4963087;28;20467;-74
2023/05/16 00:32:20;;;;;;;26.13;4.43;;;;;;;9.64;100.00;101763.09;4967368;28;20904;-75
2023/05/16 00:34:45;;;;;;;27.10;5.63;;;;;;;9.86;100.00;101767.41;4984655;28;20043;-76
2023/05/16 00:37:12;;;;;;;26.02;5.55;;;;;;;9.76;100.00;101766.09;4971357;28;20039;-75
2023/05/16 00:39:38;;;;;;;18.58;4.45;;;;;;;9.71;100.00;101770.75;4959601;28;20097;-74
2023/05/16 00:42:06;;;;;;;27.67;5.15;;;;;;;9.78;100.00;101771.34;4965795;28;20902;-75
2023/05/16 00:44:38;;;;;;;31.35;5.78;;;;;;;9.76;100.00;101766.09;4960937;28;20115;-75
2023/05/16 00:47:04;;;;;;;23.33;4.63;;;;;;;9.71;100.00;101764.56;4972989;28;20027;-75
2023/05/16 00:49:31;;;;;;;25.77;4.45;;;;;;;9.63;100.00;101775.53;4959343;28;20090;-75
2023/05/16 00:51:57;;;;;;;24.65;4.70;;;;;;;9.47;100.00;101778.03;4972900;28;20376;-74
2023/05/16 00:54:27;;;;;;;17.70;4.93;;;;;;;9.53;100.00;101775.09;4969424;28;20070;-74
2023/05/16 00:56:53;;;;;;;26.13;4.72;;;;;;;9.57;100.00;101782.00;4977877;28;20054;-74
2023/05/16 00:59:19;;;;;;;25.92;4.78;;;;;;;9.54;100.00;101781.31;4981859;28;20091;-75
2023/05/16 01:01:46;;;;;;;23.30;4.40;;;;;;;9.46;100.00;101788.75;4960303;28;20928;-74
2023/05/16 01:04:13;;;;;;;21.35;4.25;;;;;;;9.10;100.00;101783.22;4990202;28;20042;-75
2023/05/16 01:06:38;;;;;;;20.40;4.88;;;;;;;9.33;100.00;101785.72;4982537;28;20031;-76
2023/05/16 01:09:06;;;;;;;19.08;4.25;;;;;;;9.33;100.00;101788.41;4993688;28;20050;-75
2023/05/16 01:11:42;;;;;;;26.70;5.15;;;;;;;9.24;100.00;101786.16;4979039;28;20027;-76
2023/05/16 01:14:10;;;;;;;20.55;4.50;;;;;;;9.22;100.00;101788.00;4976643;28;20122;-76
2023/05/16 01:16:53;;;;;;;21.90;4.55;;;;;;;9.20;100.00;101787.22;4980523;28;20031;-75
2023/05/16 01:19:22;;;;;;;30.48;5.72;;;;;;;9.17;100.00;101788.19;4981846;28;20034;-76
2023/05/16 01:22:01;;;;;;;22.77;4.50;;;;;;;9.24;100.00;101780.84;4982250;28;20036;-75
2023/05/16 01:25:09;;;;;;;24.58;5.47;;;;;;;9.25;100.00;101788.75;4968710;28;20038;-76
2023/05/16 01:27:37;;;;;;;32.97;5.28;;;;;;;9.17;100.00;101784.66;4980563;28;20214;-76
2023/05/16 01:30:16;;;;;;;21.65;4.90;;;;;;;9.19;100.00;101785.50;4966318;28;20062;-75
2023/05/16 01:32:42;;;;;;;33.03;5.10;;;;;;;9.11;100.00;101795.56;4978116;28;20109;-73
2023/05/16 01:35:16;;;;;;;21.50;3.85;;;;;;;9.11;100.00;101785.78;4987050;28;20094;-74
2023/05/16 01:37:51;;;;;;;15.85;5.00;;;;;;;8.94;100.00;101794.50;4970078;28;20042;-74
2023/05/16 01:40:52;;;;;;;27.42;4.13;;;;;;;8.97;100.00;101790.81;4970805;28;20031;-77
2023/05/16 01:43:34;;;;;;;22.33;4.18;;;;;;;8.98;100.00;101780.09;4967166;28;20114;-76
2023/05/16 01:46:11;;;;;;;18.88;4.03;;;;;;;8.85;100.00;101789.53;4971201;28;20047;-76
2023/05/16 01:48:44;;;;;;;18.35;3.80;;;;;;;8.76;100.00;101793.44;4961776;28;20051;-77
2023/05/16 01:51:11;;;;;;;23.30;4.88;;;;;;;8.78;100.00;101796.03;4957975;28;20125;-73
2023/05/16 01:53:38;;;;;;;21.15;4.05;;;;;;;8.82;100.00;101792.31;4965617;28;20027;-74
2023/05/16 01:56:12;;;;;;;30.83;4.60;;;;;;;8.85;100.00;101799.31;4964834;28;20035;-77
2023/05/16 01:58:40;;;;;;;26.52;6.38;;;;;;;8.76;100.00;101803.22;4952758;28;20031;-72
2023/05/16 02:01:06;;;;;;;26.95;5.25;;;;;;;8.81;100.00;101798.56;4962291;28;20070;-76
2023/05/16 02:03:33;;;;;;;19.75;3.90;;;;;;;8.65;100.00;101800.97;4965012;28;20045;-74
2023/05/16 02:05:59;;;;;;;30.48;4.03;;;;;;;8.70;100.00;101792.81;4955705;28;20389;-74
2023/05/16 02:08:26;;;;;;;23.85;4.30;;;;;;;8.69;100.00;101797.28;4966156;28;21055;-74
2023/05/16 02:10:52;;;;;;;21.88;3.92;;;;;;;8.65;100.00;101808.09;4984315;28;20030;-73
2023/05/16 02:13:18;;;;;;;22.52;3.83;;;;;;;8.51;100.00;101800.66;4980881;28;20094;-76
2023/05/16 02:15:44;;;;;;;14.55;4.25;;;;;;;8.63;100.00;101804.63;4954161;28;20051;-76
2023/05/16 02:18:10;;;;;;;22.25;3.75;;;;;;;8.48;100.00;101801.66;4965884;28;20030;-76
2023/05/16 02:20:35;;;;;;;27.73;4.70;;;;;;;8.53;100.00;101807.66;4965671;28;20787;-76
2023/05/16 02:23:02;;;;;;;21.95;4.13;;;;;;;8.49;100.00;101807.84;4979313;28;20039;-76
2023/05/16 02:25:28;;;;;;;17.92;3.40;;;;;;;8.44;100.00;101804.50;4982692;28;20046;-75
2023/05/16 02:27:54;;;;;;;27.30;5.20;;;;;;;8.52;100.00;101803.25;4962410;28;20030;-75
2023/05/16 02:30:19;;;;;;;16.23;3.78;;;;;;;8.18;100.00;101808.09;4971397;28;20665;-75
2023/05/16 02:32:45;;;;;;;21.23;4.13;;;;;;;8.33;100.00;101810.16;4970090;28;20039;-76
2023/05/16 02:35:11;;;;;;;27.35;4.10;;;;;;;8.24;100.00;101810.53;4971422;28;20145;-76
2023/05/16 02:37:36;;;;;;;24.08;5.38;;;;;;;8.29;100.00;101813.91;4969446;28;20539;-75
2023/05/16 02:40:06;;;;;;;19.92;3.60;;;;;;;8.29;100.00;101811.25;4968425;28;20035;-75
2023/05/16 02:42:33;;;;;;;19.38;3.90;;;;;;;8.36;100.00;101809.19;4966614;28;20031;-76
2023/05/16 02:44:58;;;;;;;23.30;3.75;;;;;;;8.31;100.00;101810.22;4958442;28;20039;-76
2023/05/16 02:47:24;;;;;;;22.90;3.90;;;;;;;8.29;100.00;101817.41;4957859;28;20047;-76
2023/05/16 02:49:51;;;;;;;18.08;2.92;;;;;;;8.25;100.00;101828.22;4971738;28;20106;-75
2023/05/16 02:52:18;;;;;;;23.08;4.32;;;;;;;8.22;100.00;101830.97;4972606;28;20030;-75
2023/05/16 02:54:44;;;;;;;18.60;3.50;;;;;;;8.30;100.00;101826.25;4966628;28;20035;-76
2023/05/16 02:57:09;;;;;;;22.35;3.90;;;;;;;8.12;100.00;101833.09;4961434;28;20043;-75
2023/05/16 02:59:35;;;;;;;28.02;4.20;;;;;;;8.13;100.00;101836.63;4980777;28;20093;-75
2023/05/16 03:02:01;;;;;;;22.85;3.63;;;;;;;8.22;100.00;101839.81;4972200;28;20043;-75
2023/05/16 03:04:26;;;;;;;19.20;3.97;;;;;;;8.13;100.00;101837.50;4967411;28;20075;-75
2023/05/16 03:06:52;;;;;;;20.38;2.92;;;;;;;8.18;100.00;101837.31;4952291;28;20031;-76
2023/05/16 03:09:19;;;;;;;21.08;3.85;;;;;;;8.17;100.00;101840.91;4969934;28;20997;-75
2023/05/16 03:11:44;;;;;;;21.58;4.28;;;;;;;8.14;100.00;101841.91;4961372;28;20046;-75
2023/05/16 03:14:11;;;;;;;18.88;3.65;;;;;;;8.15;100.00;101848.09;4961503;28;20038;-75
2023/05/16 03:16:37;;;;;;;19.17;3.67;;;;;;;8.09;100.00;101849.19;4983321;28;20047;-75
2023/05/16 03:19:04;;;;;;;25.20;3.22;;;;;;;8.11;100.00;101843.81;4961743;28;20142;-74
2023/05/16 03:21:32;;;;;;;20.92;3.63;;;;;;;8.04;100.00;101841.38;4962509;28;20101;-76
2023/05/16 03:23:58;;;;;;;14.57;3.70;;;;;;;8.08;100.00;101849.22;4982897;28;20047;-75
2023/05/16 03:26:24;;;;;;;17.10;3.05;;;;;;;8.11;100.00;101851.78;4964375;28;20098;-75
2023/05/16 03:28:50;;;;;;;25.95;3.90;;;;;;;8.11;100.00;101857.09;4970543;28;20850;-75
2023/05/16 03:31:16;;;;;;;26.13;4.20;;;;;;;8.05;100.00;101853.72;4965005;28;20981;-75
2023/05/16 03:33:42;;;;;;;23.27;3.67;;;;;;;8.13;100.00;101855.22;4964695;28;20093;-75
2023/05/16 03:36:09;;;;;;;21.80;4.07;;;;;;;8.10;100.00;101856.22;4971932;28;20818;-75
2023/05/16 03:38:35;;;;;;;19.10;4.15;;;;;;;8.05;100.00;101863.50;4980457;28;20069;-75
2023/05/16 03:41:01;;;;;;;19.92;4.22;;;;;;;8.07;100.00;101871.38;4985660;28;21075;-75
2023/05/16 03:43:26;;;;;;;21.38;3.97;;;;;;;8.00;100.00;101873.41;4984923;28;20039;-75
2023/05/16 03:45:52;;;;;;;15.15;3.85;;;;;;;7.92;100.00;101876.31;4977878;28;20031;-75
2023/05/16 03:48:18;;;;;;;19.80;4.32;;;;;;;7.96;100.00;101879.75;4969974;28;20687;-76
2023/05/16 03:50:43;;;;;;;21.50;3.90;;;;;;;7.98;100.00;101885.84;4965939;28;20121;-76
2023/05/16 03:53:09;;;;;;;20.30;3.55;;;;;;;8.10;100.00;101879.25;4966689;28;20042;-75
2023/05/16 03:55:35;;;;;;;28.30;4.57;;;;;;;8.15;100.00;101886.13;4967003;28;20599;-75
2023/05/16 03:58:00;;;;;;;24.98;4.53;;;;;;;8.16;100.00;101882.56;4962310;28;20031;-76
2023/05/16 04:00:26;;;;;;;18.23;3.55;;;;;;;8.27;100.00;101887.47;4966373;28;20038;-74
2023/05/16 04:02:52;;;;;;;24.50;5.63;;;;;;;8.77;100.00;101879.41;4983703;28;20957;-75
2023/05/16 04:05:18;;;;;;;15.50;2.88;;;;;;;9.08;100.00;101885.22;4962400;28;20038;-75
2023/05/16 04:07:43;;;;;;;23.45;4.07;;;;;;;9.44;100.00;101875.78;4964777;28;20031;-74
2023/05/16 04:10:10;;;;;;;19.40;3.95;;;;;;;9.89;100.00;101877.41;4969602;28;20576;-76
2023/05/16 04:12:35;;;;;;;17.88;3.90;;;;;;;10.37;100.00;101877.91;4981707;28;20722;-76
2023/05/16 04:15:03;;;;;;;13.80;3.20;;;;;;;10.71;100.00;101880.81;4957796;28;20050;-75
2023/05/16 04:17:29;;;;;;;18.75;3.40;;;;;;;10.95;100.00;101882.31;4963728;28;20105;-75
2023/05/16 04:19:54;;;;;;;15.60;3.35;;;;;;;11.05;100.00;101882.75;4982947;28;20070;-75
2023/05/16 04:22:21;;;;;;;22.85;3.92;;;;;;;11.35;100.00;101875.03;4979397;28;20035;-75
2023/05/16 04:24:47;;;;;;;18.00;4.05;;;;;;;11.63;100.00;101882.50;4973152;28;20035;-74
2023/05/16 04:27:13;;;;;;;23.25;3.72;;;;;;;12.20;100.00;101885.78;4980170;28;20496;-73
2023/05/16 04:29:39;;;;;;;16.48;4.50;;;;;;;12.67;100.00;101885.00;4975468;28;20030;-75
2023/05/16 04:32:06;;;;;;;20.73;3.70;;;;;;;13.34;97.44;101888.38;4982057;28;20461;-75
2023/05/16 04:34:36;;;;;;;18.90;4.57;;;;;;;13.51;89.79;101888.25;4973918;28;20556;-76
2023/05/16 04:37:06;;;;;;;18.80;4.10;;;;;;;13.58;87.80;101886.94;4966458;28;20055;-75
2023/05/16 04:39:34;;;;;;;20.38;4.57;;;;;;;13.71;86.99;101885.25;4973792;28;20042;-75
2023/05/16 04:42:00;;;;;;;22.75;3.78;;;;;;;14.59;84.47;101891.47;4980655;28;20121;-76
2023/05/16 04:44:25;;;;;;;20.48;3.67;;;;;;;14.92;81.95;101895.66;4955596;28;20031;-75
2023/05/16 04:46:52;;;;;;;19.65;3.38;;;;;;;14.69;77.11;101895.31;4973221;28;20500;-75
2023/05/16 04:49:19;;;;;;;15.40;3.15;;;;;;;15.24;76.08;101897.09;4968309;28;20051;-76
2023/05/16 04:51:45;;;;;;;16.38;3.13;;;;;;;15.77;74.08;101892.66;4966347;28;20035;-75
2023/05/16 04:54:11;;;;;;;19.60;3.75;;;;;;;16.31;71.81;101888.91;4965936;28;20030;-76
2023/05/16 04:56:37;;;;;;;15.00;3.67;;;;;;;16.66;70.19;101889.09;4982293;28;20756;-75
2023/05/16 04:59:03;;;;;;;22.20;3.53;;;;;;;16.68;68.06;101895.25;4967219;28;20039;-75
2023/05/16 05:01:31;;;;;;;14.80;2.85;;;;;;;17.09;67.61;101899.47;4974857;28;20039;-75
2023/05/16 05:03:57;;;;;;;17.00;3.45;;;;;;;16.18;66.82;101904.22;4964978;28;20070;-74
2023/05/16 05:06:23;;;;;;;12.13;2.67;;;;;;;15.99;71.15;101899.25;4968992;28;20027;-76
2023/05/16 05:08:48;;;;;;;14.02;3.05;;;;;;;16.42;68.96;101896.25;4973491;28;20484;-73
2023/05/16 05:11:14;;;;;;;17.45;3.50;;;;;;;16.63;67.28;101905.50;4971801;28;20042;-75
2023/05/16 05:13:39;;;;;;;22.02;3.38;;;;;;;15.48;69.12;101908.03;4989418;28;20043;-74
2023/05/16 05:16:06;;;;;;;16.52;3.33;;;;;;;14.90;73.71;101924.44;4974047;28;20031;-75
2023/05/16 05:18:31;;;;;;;18.88;3.65;;;;;;;14.65;76.83;101917.94;4975135;28;20125;-76
2023/05/16 05:20:57;;;;;;;19.23;3.53;;;;;;;14.37;78.45;101921.47;4973530;28;20929;-75
2023/05/16 05:23:23;;;;;;;13.75;2.97;;;;;;;15.41;75.61;101911.22;4971631;28;20522;-75
2023/05/16 05:25:49;;;;;;;13.18;3.17;;;;;;;15.21;75.31;101917.91;4978231;28;20540;-75
2023/05/16 05:28:15;;;;;;;12.48;3.55;;;;;;;16.13;74.14;101915.31;4974124;28;20368;-74
2023/05/16 05:30:40;;;;;;;18.67;3.97;;;;;;;16.82;69.94;101915.84;4980563;28;20040;-75
2023/05/16 05:33:06;;;;;;;14.70;2.67;;;;;;;17.16;68.66;101916.88;4974770;28;20043;-75
2023/05/16 05:35:33;;;;;;;17.10;3.20;;;;;;;17.16;68.24;101918.72;4969067;28;20039;-75
2023/05/16 05:37:58;;;;;;;14.63;3.28;;;;;;;16.67;67.08;101922.28;4960980;28;20476;-75
2023/05/16 05:40:24;;;;;;;20.02;3.00;;;;;;;16.82;68.10;101924.78;4984101;28;20035;-75
2023/05/16 05:42:50;;;;;;;15.10;2.88;;;;;;;17.30;68.41;101932.06;4963887;28;20035;-74
2023/05/16 05:45:15;;;;;;;10.57;2.95;;;;;;;17.27;67.14;101926.88;4967990;28;20906;-74
2023/05/16 05:47:42;;;;;;;16.02;2.85;;;;;;;16.61;67.23;101936.19;4961491;28;20058;-74
2023/05/16 05:50:10;;;;;;;18.13;3.20;;;;;;;16.72;66.91;101937.19;4955495;28;20066;-73
2023/05/16 05:52:37;;;;;;;13.23;3.60;;;;;;;17.01;64.34;101940.44;4966496;28;20039;-74
2023/05/16 05:55:03;;;;;;;7.28;2.40;;;;;;;16.61;66.21;101937.03;4964423;28;20039;-74
2023/05/16 05:57:28;;;;;;;14.38;2.75;;;;;;;16.44;66.59;101946.31;4985930;28;20452;-73
2023/05/16 05:59:54;;;;;;;13.95;3.38;;;;;;;16.12;69.25;101937.81;4959858;28;20043;-73
2023/05/16 06:02:20;;;;;;;17.23;3.00;;;;;;;16.31;67.82;101942.75;4973904;28;20043;-76
2023/05/16 06:04:45;;;;;;;14.32;3.33;;;;;;;16.10;68.77;101944.25;4962700;28;20036;-76
2023/05/16 06:07:11;;;;;;;14.48;3.15;;;;;;;16.29;66.92;101945.56;4962300;28;20389;-75
2023/05/16 06:09:37;;;;;;;12.07;2.63;;;;;;;15.97;69.17;101946.94;4970438;28;20090;-74
2023/05/16 06:12:03;;;;;;;11.93;3.03;;;;;;;15.75;69.93;101948.38;4970406;28;20035;-76
2023/05/16 06:14:29;;;;;;;14.20;3.70;;;;;;;16.39;67.04;101953.84;4964875;28;20218;-76
2023/05/16 06:16:55;;;;;;;16.42;3.85;;;;;;;16.19;70.29;101949.00;4961726;28;20141;-76
2023/05/16 06:19:21;;;;;;;15.35;3.70;;;;;;;16.75;66.28;101957.63;4970450;28;20323;-75
2023/05/16 06:21:47;;;;;;;17.05;3.13;;;;;;;16.41;66.89;101961.81;4961974;28;20089;-74
2023/05/16 06:24:12;;;;;;;14.40;3.05;;;;;;;16.33;68.90;101962.38;4967087;28;20031;-76
2023/05/16 06:26:40;;;;;;;12.68;3.38;;;;;;;15.95;67.31;101957.78;4966817;28;20717;-76
2023/05/16 06:29:05;;;;;;;9.73;3.03;;;;;;;16.33;68.58;101956.97;4971086;28;20489;-74
2023/05/16 06:31:31;;;;;;;16.60;3.10;;;;;;;16.33;65.91;101959.69;4963675;28;20035;-76
2023/05/16 06:33:57;;;;;;;22.75;3.03;;;;;;;16.22;65.66;101948.81;4982643;28;20042;-74
2023/05/16 06:36:22;;;;;;;15.85;3.03;;;;;;;15.55;66.44;101964.94;4964417;28;20734;-73
2023/05/16 06:38:49;;;;;;;10.32;2.65;;;;;;;15.51;68.35;101977.75;4983979;28;20047;-74
2023/05/16 06:41:15;;;;;;;19.63;3.50;;;;;;;15.39;69.05;101975.84;4967929;28;20143;-74
2023/05/16 06:43:41;;;;;;;14.10;3.17;;;;;;;14.73;72.06;101969.34;4963492;28;20041;-74
2023/05/16 06:46:06;;;;;;;18.80;3.42;;;;;;;14.66;73.81;101975.19;4965045;28;20473;-74
2023/05/16 06:48:33;;;;;;;14.20;2.80;;;;;;;14.57;76.48;101976.63;4967849;28;20627;-76
2023/05/16 06:51:00;;;;;;;20.48;3.53;;;;;;;14.31;78.57;101980.00;4964373;28;20039;-77
2023/05/16 06:53:26;;;;;;;14.80;2.67;;;;;;;14.09;79.82;101985.81;4977163;28;20857;-72
2023/05/16 06:55:51;;;;;;;14.25;3.00;;;;;;;14.29;80.72;101981.91;4959439;28;20775;-74
2023/05/16 06:58:17;;;;;;;17.25;3.28;;;;;;;14.36;80.95;101980.63;4970267;28;20500;-73
2023/05/16 07:00:44;;;;;;;13.25;3.13;;;;;;;14.20;82.42;101977.97;4970372;28;20104;-76
2023/05/16 07:03:09;;;;;;;18.85;3.33;;;;;;;14.23;82.37;101977.78;4963964;28;20035;-74
2023/05/16 07:05:35;;;;;;;9.68;2.88;;;;;;;14.12;82.17;101981.13;4962753;28;20535;-74
2023/05/16 07:08:01;;;;;;;15.63;3.72;;;;;;;13.89;84.35;101987.00;4961307;28;20070;-75
2023/05/16 07:10:27;;;;;;;13.80;2.85;;;;;;;14.05;86.09;101984.25;4986932;28;20023;-74
2023/05/16 07:12:52;;;;;;;14.57;3.53;;;;;;;13.74;85.92;101992.28;4964590;28;20027;-76
2023/05/16 07:15:18;;;;;;;8.18;2.40;;;;;;;13.91;85.18;101996.69;4977689;28;20035;-76
2023/05/16 07:17:44;;;;;;;15.88;2.60;;;;;;;13.65;85.64;101983.91;4967970;28;20312;-75
2023/05/16 07:20:12;;;;;;;14.55;2.83;;;;;;;13.90;85.94;101997.63;4970968;28;20038;-76
2023/05/16 07:22:41;;;;;;;19.15;3.53;;;;;;;14.26;84.95;101983.00;4970480;28;20771;-76
2023/05/16 07:25:11;;;;;;;14.35;2.80;;;;;;;14.34;85.14;101986.06;4963654;28;20074;-73
2023/05/16 07:27:40;;;;;;;10.48;2.90;;;;;;;14.92;84.89;101984.31;4967275;28;20035;-76
2023/05/16 07:30:08;;;;;;;17.58;2.90;;;;;;;15.38;81.39;102000.16;4965828;28;20130;-75
2023/05/16 07:32:36;;;;;;;10.25;3.42;;;;;;;15.13;77.01;102003.56;4970861;28;20038;-76
2023/05/16 07:35:03;;;;;;;12.20;2.92;;;;;;;15.28;77.43;101998.06;4961375;28;20146;-76
2023/05/16 07:37:29;;;;;;;12.10;2.75;;;;;;;15.32;75.13;101998.72;4965205;28;20383;-75
2023/05/16 07:39:54;;;;;;;10.20;2.63;;;;;;;15.36;72.58;101988.63;4966507;28;20242;-75
2023/05/16 07:42:20;;;;;;;11.80;2.22;;;;;;;16.17;71.95;101983.25;4965719;28;20114;-76
2023/05/16 07:44:45;;;;;;;12.00;2.78;;;;;;;16.56;69.21;101979.59;4971113;28;20041;-74
2023/05/16 07:47:11;;;;;;;12.20;2.67;;;;;;;16.61;69.19;101979.25;4980615;28;20039;-74
2023/05/16 07:49:37;;;;;;;15.30;2.30;;;;;;;16.37;68.55;101976.47;4960651;28;20149;-75
2023/05/16 07:52:06;;;;;;;13.05;2.53;;;;;;;15.62;70.50;101985.09;4965157;28;20054;-75
2023/05/16 07:54:35;;;;;;;10.48;2.60;;;;;;;15.17;72.20;101991.66;4963476;28;20039;-75
2023/05/16 07:57:01;;;;;;;9.50;2.30;;;;;;;14.58;72.62;101997.13;4983906;28;21164;-74
2023/05/16 07:59:27;;;;;;;9.35;2.22;;;;;;;14.27;74.02;102003.50;4960890;28;20027;-75
2023/05/16 08:01:54;;;;;;;13.50;1.92;;;;;;;14.10;77.58;101992.88;4968889;28;20031;-74
2023/05/16 08:04:20;;;;;;;9.15;2.40;;;;;;;13.80;76.96;101998.25;4966914;28;20077;-74
2023/05/16 08:06:45;;;;;;;8.63;2.10;;;;;;;14.39;75.80;101992.00;4970618;28;20054;-74
2023/05/16 08:09:11;;;;;;;9.23;2.28;;;;;;;14.99;74.53;101989.16;4960285;28;20033;-73
2023/05/16 08:11:38;;;;;;;7.43;2.38;;;;;;;15.13;72.40;101991.00;4962812;28;20031;-74
2023/05/16 08:14:05;;;;;;;11.13;1.92;;;;;;;14.93;73.72;101992.25;4981065;28;20198;-74
2023/05/16 08:16:31;;;;;;;9.52;2.22;;;;;;;13.97;76.53;101995.47;4966711;28;20548;-74
2023/05/16 08:18:57;;;;;;;8.35;2.42;;;;;;;14.15;78.55;101996.16;4963664;28;20508;-73
2023/05/16 08:21:22;;;;;;;17.10;2.63;;;;;;;13.35;82.23;101994.56;4970808;28;20134;-76
2023/05/16 08:23:48;;;;;;;11.88;2.65;;;;;;;13.60;81.42;102010.97;4965457;28;20371;-76
2023/05/16 08:26:13;;;;;;;8.70;2.33;;;;;;;13.67;77.53;102007.00;4963874;28;20035;-75
2023/05/16 08:28:39;;;;;;;14.73;2.30;;;;;;;13.96;79.48;101999.97;4963979;28;20469;-76
2023/05/16 08:31:05;;;;;;;13.30;2.35;;;;;;;14.68;80.17;101994.75;4969699;28;20039;-75
2023/05/16 08:33:31;;;;;;;14.75;2.17;;;;;;;15.74;78.42;101988.81;4966204;28;20043;-75
2023/05/16 08:35:57;;;;;;;4.43;1.58;;;;;;;15.48;69.63;101988.69;4965468;28;20061;-76
2023/05/16 08:38:23;;;;;;;11.65;1.77;;;;;;;14.92;69.58;101989.69;4962984;28;20043;-76
2023/05/16 08:40:48;;;;;;;9.75;1.88;;;;;;;13.66;80.34;102002.63;4974140;28;20039;-75
2023/05/16 08:43:14;;;;;;;9.32;2.63;;;;;;;12.77;93.88;102011.16;4967900;28;20039;-75
2023/05/16 08:45:41;;;;;;;8.80;2.28;;;;;;;12.59;100.00;102011.19;4968163;28;20158;-76
2023/05/16 08:48:09;;;;;;;9.20;1.83;;;;;;;13.53;99.90;102009.63;4966426;28;20054;-75
2023/05/16 08:50:35;;;;;;;9.90;2.10;;;;;;;13.19;100.00;102011.47;4959706;28;20042;-75
2023/05/16 08:53:07;;;;;;;6.97;1.52;;;;;;;13.28;100.00;102011.97;4969913;28;20035;-74
2023/05/16 08:55:35;;;;;;;8.32;2.05;;;;;;;14.28;95.13;102007.03;4978980;28;20041;-75
2023/05/16 08:58:03;;;;;;;11.43;1.70;;;;;;;14.39;98.63;102002.72;4959099;28;20043;-74
2023/05/16 09:00:28;;;;;;;6.93;1.55;;;;;;;14.60;82.04;102000.59;4964970;28;20137;-74
2023/05/16 09:02:54;;;;;;;7.32;1.88;;;;;;;14.99;88.12;102004.44;4959260;28;20039;-74
2023/05/16 09:05:21;;;;;;;7.70;1.95;;;;;;;14.80;86.24;102004.72;4970301;28;20027;-76
2023/05/16 09:07:47;;;;;;;11.38;2.22;;;;;;;15.03;79.36;101998.75;4979683;28;20035;-74
2023/05/16 09:10:13;;;;;;;9.80;1.90;;;;;;;14.42;76.39;101999.88;4962982;28;20796;-75
2023/05/16 09:12:40;;;;;;;6.57;1.67;;;;;;;14.16;75.59;101995.22;4957076;28;20031;-75
2023/05/16 09:15:08;;;;;;;8.38;1.70;;;;;;;16.20;71.97;101974.94;4964335;28;20611;-76
2023/05/16 09:17:40;;;;;;;9.40;1.40;;;;;;;16.79;67.11;101980.69;4969964;28;20071;-75
2023/05/16 09:20:16;;;;;;;5.30;1.25;;;;;;;16.98;62.86;101975.72;4964989;28;20154;-76
2023/05/16 09:22:57;;;;;;;6.15;1.25;;;;;;;16.94;62.14;101982.28;4965412;28;20126;-73
2023/05/16 09:25:25;;;;;;;5.97;1.17;;;;;;;17.41;61.56;101980.63;4984451;28;20134;-75
2023/05/16 09:27:58;;;;;;;4.93;1.80;;;;;;;17.33;59.49;101983.06;4961545;28;20050;-76
2023/05/16 09:30:36;;;;;;;5.57;1.25;;;;;;;17.30;57.69;101989.53;4965589;28;20035;-76
2023/05/16 09:33:01;;;;;;;5.47;1.70;;;;;;;16.14;60.30;102008.53;4965747;28;20036;-76
2023/05/16 09:35:31;;;;;;;3.03;1.33;;;;;;;14.58;66.02;102020.44;4959681;28;20183;-76
2023/05/16 09:37:56;;;;;;;2.83;1.05;;;;;;;13.72;68.00;102037.09;4960543;28;20039;-75
2023/05/16 09:40:22;;;;;;;5.57;1.10;;;;;;;13.72;71.74;102044.28;4972987;28;20046;-75
2023/05/16 09:43:01;;;;;;;3.33;1.00;;;;;;;13.25;73.69;102042.44;4965962;28;20045;-75
2023/05/16 09:45:35;;;;;;;3.72;1.30;;;;;;;12.88;84.54;102035.53;4966029;28;20039;-75
2023/05/16 09:48:05;;;;;;;3.85;0.77;;;;;;;12.19;99.58;102036.47;4976600;28;20129;-76
2023/05/16 09:50:36;;;;;;;7.53;0.95;;;;;;;12.11;98.17;102038.69;4983726;28;20043;-76
2023/05/16 09:53:03;;;;;;;4.82;1.40;;;;;;;12.77;94.83;102041.47;4972465;28;20101;-75
2023/05/16 09:55:29;;;;;;;7.80;1.13;;;;;;;13.02;95.75;102032.13;4972338;28;20034;-75
2023/05/16 09:57:55;;;;;;;3.78;1.05;;;;;;;13.27;87.20;102029.84;4973540;28;20081;-74
2023/05/16 10:00:21;;;;;;;5.88;1.50;;;;;;;13.92;86.27;102027.91;4975329;28;20028;-77
2023/05/16 10:02:48;;;;;;;8.48;1.45;;;;;;;14.30;78.35;102029.25;4972331;28;20038;-76
2023/05/16 10:05:16;;;;;;;4.97;1.50;;;;;;;14.84;81.26;102019.69;4977490;28;20035;-75
2023/05/16 10:07:43;;;;;;;2.72;1.38;;;;;;;15.13;76.19;102017.84;4966075;28;20050;-74
2023/05/16 10:10:09;;;;;;;8.02;1.30;;;;;;;16.11;74.33;102008.72;4970917;28;20031;-75
2023/05/16 10:12:37;;;;;;;6.57;1.80;;;;;;;15.26;73.86;102018.81;4973222;28;20049;-76
2023/05/16 10:15:09;;;;;;;9.25;1.55;;;;;;;14.80;71.93;102036.09;4973375;28;20035;-77
2023/05/16 10:17:39;;;;;;;5.45;0.98;;;;;;;13.52;91.34;102044.56;4973821;28;20043;-77
2023/05/16 10:20:08;;;;;;;4.57;0.90;;;;;;;13.36;91.70;102036.50;4979340;28;20039;-76
2023/05/16 10:22:35;;;;;;;3.90;0.90;;;;;;;13.29;87.24;102027.94;4966672;28;20035;-76
2023/05/16 10:25:24;;;;;;;5.65;1.20;;;;;;;13.01;78.95;102025.91;4978212;28;20051;-77
2023/05/16 10:27:50;;;;;;;9.52;1.45;;;;;;;13.23;78.82;102024.75;4961148;28;20043;-75
2023/05/16 10:30:17;;;;;;;5.70;1.38;;;;;;;13.17;77.38;102028.59;4981197;28;20039;-76
2023/05/16 10:32:45;;;;;;;6.57;1.40;;;;;;;13.57;81.95;102023.72;4957269;28;20094;-76
2023/05/16 10:35:10;;;;;;;6.78;1.85;;;;;;;13.55;80.43;102023.78;4960074;28;20038;-75
2023/05/16 10:37:37;;;;;;;12.05;1.77;;;;;;;14.22;76.95;102019.88;4967413;28;20039;-75
2023/05/16 10:40:05;;;;;;;13.82;1.92;;;;;;;14.35;77.21;102006.56;4963243;28;20031;-76
2023/05/16 10:42:32;;;;;;;6.15;1.75;;;;;;;14.95;69.65;101997.53;4961293;28;20031;-75
2023/05/16 10:45:18;;;;;;;4.10;1.30;;;;;;;14.69;72.29;102000.03;4968548;28;20047;-76
2023/05/16 10:48:03;;;;;;;7.07;1.92;;;;;;;15.29;67.04;101999.78;4948721;28;20059;-76
2023/05/16 10:50:34;;;;;;;8.38;1.45;;;;;;;15.78;68.22;101993.03;4971086;28;20038;-76
2023/05/16 10:53:27;;;;;;;7.22;1.50;;;;;;;16.18;65.79;101988.50;4968427;28;20122;-73
2023/05/16 10:56:02;;;;;;;8.52;1.70;;;;;;;16.00;67.70;101989.75;4951593;28;20039;-75
2023/05/16 10:58:37;;;;;;;10.48;2.00;;;;;;;16.07;68.58;101982.16;4982380;28;20045;-76
2023/05/16 11:01:23;;;;;;;5.32;1.35;;;;;;;15.48;66.82;101986.00;4969670;28;20089;-76
2023/05/16 11:03:58;;;;;;;5.90;1.45;;;;;;;15.00;64.47;101996.25;4962795;28;20038;-75
2023/05/16 11:06:24;;;;;;;6.78;1.63;;;;;;;15.38;67.23;101986.72;4962268;28;20097;-75
2023/05/16 11:09:08;;;;;;;5.85;1.40;;;;;;;15.74;62.38;101972.69;4961786;28;20038;-76
2023/05/16 11:11:37;;;;;;;7.32;1.60;;;;;;;16.41;61.52;101969.91;4981634;28;20030;-75
2023/05/16 11:14:05;;;;;;;5.63;1.67;;;;;;;16.48;58.82;101971.19;4968269;28;20039;-75
2023/05/16 11:16:35;;;;;;;5.68;1.55;;;;;;;16.20;61.12;101981.19;4963543;28;20080;-76
2023/05/16 11:19:06;;;;;;;4.88;1.10;;;;;;;15.56;63.21;101988.19;4955579;28;20035;-74
2023/05/16 11:22:10;;;;;;;7.00;1.52;;;;;;;16.35;65.69;101971.19;4960016;28;20074;-75